createdAt,value
2016-06-22T00:00:42.866Z,0
2016-06-22T00:01:42.259Z,0
2016-06-22T00:02:44.131Z,0
2016-06-22T00:03:44.152Z,0
2016-06-22T00:04:42.360Z,0
2016-06-22T00:05:43.019Z,0
2016-06-22T00:06:43.033Z,0
2016-06-22T00:07:43.029Z,0
2016-06-22T00:08:42.451Z,0
2016-06-22T00:09:43.085Z,0
2016-06-22T00:10:42.490Z,0
2016-06-22T00:11:43.740Z,0
2016-06-22T00:12:43.159Z,0
2016-06-22T00:13:43.193Z,0
2016-06-22T00:14:41.984Z,0
2016-06-22T00:15:43.243Z,0
2016-06-22T00:16:42.640Z,0
2016-06-22T00:17:43.288Z,0
2016-06-22T00:18:44.532Z,0
2016-06-22T00:19:42.715Z,0
2016-06-22T00:20:43.972Z,0
2016-06-22T00:21:43.395Z,0
2016-06-22T00:22:44.026Z,0
2016-06-22T00:23:43.432Z,0
2016-06-22T00:24:44.686Z,0
2016-06-22T00:25:43.487Z,0
2016-06-22T00:26:42.288Z,0
2016-06-22T00:27:43.538Z,0
2016-06-22T00:28:42.340Z,0
2016-06-22T00:29:43.572Z,0
2016-06-22T00:30:44.245Z,0
2016-06-22T00:31:43.639Z,0
2016-06-22T00:32:43.041Z,0
2016-06-22T00:33:43.077Z,0
2016-06-22T00:34:43.697Z,0
2016-06-22T00:35:43.790Z,0
2016-06-22T00:36:42.534Z,0
2016-06-22T00:37:43.777Z,0
2016-06-22T00:38:43.815Z,0
2016-06-22T00:39:44.489Z,0
2016-06-22T00:40:43.855Z,0
2016-06-22T00:41:43.891Z,0
2016-06-22T00:42:43.297Z,0
2016-06-22T00:43:43.943Z,0
2016-06-22T00:44:43.371Z,0
2016-06-22T00:45:43.395Z,0
2016-06-22T00:46:44.032Z,0
2016-06-22T00:47:43.433Z,0
2016-06-22T00:48:44.070Z,0
2016-06-22T00:49:43.467Z,0
2016-06-22T00:50:42.890Z,0
2016-06-22T00:51:44.157Z,0
2016-06-22T00:52:44.159Z,0
2016-06-22T00:53:44.790Z,0
2016-06-22T00:54:44.213Z,0
2016-06-22T00:55:44.228Z,0
2016-06-22T00:56:43.054Z,0
2016-06-22T00:57:44.287Z,0
2016-06-22T00:58:44.317Z,0
2016-06-22T00:59:45.186Z,0
2016-06-22T01:00:44.404Z,0
2016-06-22T01:01:44.392Z,0
2016-06-22T01:02:45.054Z,0
2016-06-22T01:03:44.442Z,0
2016-06-22T01:04:43.851Z,0
2016-06-22T01:05:44.516Z,0
2016-06-22T01:06:43.284Z,0
2016-06-22T01:07:43.923Z,0
2016-06-22T01:08:45.784Z,0
2016-06-22T01:09:43.978Z,0
2016-06-22T01:10:43.384Z,0
2016-06-22T01:11:44.033Z,0
2016-06-22T01:12:44.051Z,0
2016-06-22T01:13:45.294Z,0
2016-06-22T01:14:44.099Z,0
2016-06-22T01:15:44.121Z,0
2016-06-22T01:16:44.749Z,0
2016-06-22T01:17:44.782Z,0
2016-06-22T01:18:45.473Z,0
2016-06-22T01:19:44.826Z,0
2016-06-22T01:20:44.252Z,0
2016-06-22T01:21:43.662Z,0
2016-06-22T01:22:44.289Z,0
2016-06-22T01:23:46.166Z,0
2016-06-22T01:24:44.962Z,0
2016-06-22T01:25:43.769Z,0
2016-06-22T01:26:45.005Z,0
2016-06-22T01:27:43.833Z,0
2016-06-22T01:28:43.840Z,0
2016-06-22T01:29:45.112Z,0
2016-06-22T01:30:43.880Z,0
2016-06-22T01:31:45.150Z,0
2016-06-22T01:32:45.136Z,0
2016-06-22T01:33:44.583Z,0
2016-06-22T01:34:44.589Z,0
2016-06-22T01:35:45.217Z,0
2016-06-22T01:36:44.033Z,0
2016-06-22T01:37:45.308Z,0
2016-06-22T01:38:44.710Z,0
2016-06-22T01:39:44.105Z,0
2016-06-22T01:40:45.972Z,0
2016-06-22T01:41:44.787Z,0
2016-06-22T01:42:46.017Z,0
2016-06-22T01:43:45.999Z,0
2016-06-22T01:44:46.039Z,0
2016-06-22T01:45:46.064Z,0
2016-06-22T01:46:46.724Z,0
2016-06-22T01:47:44.958Z,0
2016-06-22T01:48:44.985Z,0
2016-06-22T01:49:44.993Z,0
2016-06-22T01:50:44.997Z,0
2016-06-22T01:51:46.262Z,0
2016-06-22T01:52:46.283Z,0
2016-06-22T01:53:44.452Z,0
2016-06-22T01:54:46.931Z,0
2016-06-22T01:55:46.335Z,0
2016-06-22T01:56:46.361Z,0
2016-06-22T01:57:45.784Z,0
2016-06-22T01:58:44.580Z,0
2016-06-22T01:59:44.606Z,0
2016-06-22T02:00:45.841Z,0
2016-06-22T02:01:47.098Z,0
2016-06-22T02:02:45.907Z,0
2016-06-22T02:03:45.931Z,0
2016-06-22T02:04:45.962Z,0
2016-06-22T02:05:44.758Z,0
2016-06-22T02:06:46.616Z,0
2016-06-22T02:07:45.409Z,0
2016-06-22T02:08:46.044Z,0
2016-06-22T02:09:47.301Z,0
2016-06-22T02:10:44.884Z,0
2016-06-22T02:11:46.118Z,0
2016-06-22T02:12:46.157Z,0
2016-06-22T02:13:46.802Z,0
2016-06-22T02:14:46.217Z,0
2016-06-22T02:15:45.620Z,0
2016-06-22T02:16:45.651Z,0
2016-06-22T02:17:45.670Z,0
2016-06-22T02:18:46.321Z,0
2016-06-22T02:19:45.731Z,0
2016-06-22T02:20:46.349Z,0
2016-06-22T02:21:46.394Z,0
2016-06-22T02:22:47.013Z,0
2016-06-22T02:23:47.040Z,0
2016-06-22T02:24:45.908Z,0
2016-06-22T02:25:45.243Z,0
2016-06-22T02:26:46.522Z,0
2016-06-22T02:27:45.931Z,0
2016-06-22T02:28:47.782Z,0
2016-06-22T02:29:45.381Z,0
2016-06-22T02:30:45.990Z,0
2016-06-22T02:31:47.848Z,0
2016-06-22T02:32:45.429Z,0
2016-06-22T02:33:45.456Z,0
2016-06-22T02:34:47.930Z,0
2016-06-22T02:35:47.354Z,0
2016-06-22T02:36:45.546Z,0
2016-06-22T02:37:46.799Z,0
2016-06-22T02:38:46.200Z,0
2016-06-22T02:39:46.227Z,0
2016-06-22T02:40:46.238Z,0
2016-06-22T02:41:46.300Z,0
2016-06-22T02:42:46.918Z,0
2016-06-22T02:43:46.337Z,0
2016-06-22T02:44:46.960Z,0
2016-06-22T02:45:45.769Z,0
2016-06-22T02:46:47.613Z,0
2016-06-22T02:47:47.026Z,0
2016-06-22T02:48:47.057Z,0
2016-06-22T02:49:47.672Z,0
2016-06-22T02:50:47.703Z,0
2016-06-22T02:51:47.157Z,0
2016-06-22T02:52:47.769Z,0
2016-06-22T02:53:46.562Z,0
2016-06-22T02:54:46.597Z,0
2016-06-22T02:55:47.226Z,0
2016-06-22T02:56:46.667Z,0
2016-06-22T02:57:46.053Z,0
2016-06-22T02:58:47.931Z,0
2016-06-22T02:59:47.322Z,0
2016-06-22T03:00:46.757Z,0
2016-06-22T03:01:48.600Z,0
2016-06-22T03:02:47.399Z,0
2016-06-22T03:03:46.205Z,0
2016-06-22T03:04:47.444Z,0
2016-06-22T03:05:46.869Z,0
2016-06-22T03:06:46.281Z,0
2016-06-22T03:07:48.151Z,0
2016-06-22T03:08:47.574Z,0
2016-06-22T03:09:47.585Z,0
2016-06-22T03:10:46.982Z,0
2016-06-22T03:11:46.410Z,0
2016-06-22T03:12:46.431Z,0
2016-06-22T03:13:47.666Z,0
2016-06-22T03:14:47.709Z,0
2016-06-22T03:15:47.718Z,0
2016-06-22T03:16:48.360Z,0
2016-06-22T03:17:47.162Z,0
2016-06-22T03:18:47.820Z,0
2016-06-22T03:19:46.615Z,0
2016-06-22T03:20:47.230Z,0
2016-06-22T03:21:47.870Z,0
2016-06-22T03:22:46.678Z,0
2016-06-22T03:23:46.695Z,0
2016-06-22T03:24:48.004Z,0
2016-06-22T03:25:48.583Z,0
2016-06-22T03:26:48.025Z,0
2016-06-22T03:27:48.628Z,0
2016-06-22T03:28:47.434Z,0
2016-06-22T03:29:47.451Z,0
2016-06-22T03:30:47.488Z,0
2016-06-22T03:31:47.525Z,0
2016-06-22T03:32:48.754Z,0
2016-06-22T03:33:48.178Z,0
2016-06-22T03:34:46.979Z,0
2016-06-22T03:35:47.629Z,0
2016-06-22T03:36:47.025Z,0
2016-06-22T03:37:48.875Z,0
2016-06-22T03:38:49.515Z,0
2016-06-22T03:39:47.707Z,0
2016-06-22T03:40:48.336Z,0
2016-06-22T03:41:48.363Z,0
2016-06-22T03:42:48.397Z,0
2016-06-22T03:43:49.029Z,0
2016-06-22T03:44:49.047Z,0
2016-06-22T03:45:47.854Z,5
2016-06-22T03:46:48.496Z,5
2016-06-22T03:47:49.145Z,5
2016-06-22T03:48:48.555Z,5
2016-06-22T03:49:47.963Z,5
2016-06-22T03:50:49.197Z,5
2016-06-22T03:51:48.617Z,5
2016-06-22T03:52:48.644Z,5
2016-06-22T03:53:47.439Z,10
2016-06-22T03:54:49.925Z,10
2016-06-22T03:55:48.114Z,10
2016-06-22T03:56:48.140Z,10
2016-06-22T03:57:49.979Z,15
2016-06-22T03:58:47.559Z,15
2016-06-22T03:59:48.821Z,15
2016-06-22T04:00:48.229Z,15
2016-06-22T04:01:48.882Z,15
2016-06-22T04:02:50.124Z,20
2016-06-22T04:03:48.309Z,20
2016-06-22T04:04:48.337Z,20
2016-06-22T04:05:48.360Z,20
2016-06-22T04:06:48.381Z,20
2016-06-22T04:07:49.022Z,20
2016-06-22T04:08:49.042Z,20
2016-06-22T04:09:49.062Z,20
2016-06-22T04:10:48.476Z,20
2016-06-22T04:11:49.115Z,20
2016-06-22T04:12:48.535Z,20
2016-06-22T04:13:49.169Z,15
2016-06-22T04:14:49.802Z,15
2016-06-22T04:15:48.625Z,15
2016-06-22T04:16:49.241Z,15
2016-06-22T04:17:48.668Z,20
2016-06-22T04:18:49.290Z,20
2016-06-22T04:19:48.106Z,25
2016-06-22T04:20:48.739Z,25
2016-06-22T04:21:49.969Z,30
2016-06-22T04:22:49.400Z,30
2016-06-22T04:23:49.430Z,35
2016-06-22T04:24:49.493Z,35
2016-06-22T04:25:50.727Z,35
2016-06-22T04:26:49.508Z,35
2016-06-22T04:27:50.131Z,35
2016-06-22T04:28:49.546Z,35
2016-06-22T04:29:48.956Z,35
2016-06-22T04:30:48.979Z,35
2016-06-22T04:31:49.021Z,40
2016-06-22T04:32:48.424Z,45
2016-06-22T04:33:48.451Z,45
2016-06-22T04:34:49.710Z,45
2016-06-22T04:35:49.750Z,45
2016-06-22T04:36:48.513Z,45
2016-06-22T04:37:49.785Z,50
2016-06-22T04:38:49.812Z,50
2016-06-22T04:39:49.818Z,50
2016-06-22T04:40:49.846Z,50
2016-06-22T04:41:49.879Z,50
2016-06-22T04:42:48.683Z,50
2016-06-22T04:43:49.323Z,45
2016-06-22T04:44:49.346Z,40
2016-06-22T04:45:48.771Z,35
2016-06-22T04:46:51.223Z,30
2016-06-22T04:47:50.654Z,30
2016-06-22T04:48:48.842Z,25
2016-06-22T04:49:50.080Z,25
2016-06-22T04:50:50.158Z,25
2016-06-22T04:51:49.521Z,30
2016-06-22T04:52:50.147Z,30
2016-06-22T04:53:51.466Z,35
2016-06-22T04:54:48.998Z,35
2016-06-22T04:55:50.250Z,40
2016-06-22T04:56:49.076Z,40
2016-06-22T04:57:50.306Z,40
2016-06-22T04:58:50.929Z,35
2016-06-22T04:59:49.716Z,35
2016-06-22T05:00:50.358Z,30
2016-06-22T05:01:49.766Z,30
2016-06-22T05:02:50.416Z,25
2016-06-22T05:03:51.036Z,25
2016-06-22T05:04:51.086Z,25
2016-06-22T05:05:51.116Z,25
2016-06-22T05:06:49.919Z,25
2016-06-22T05:07:50.529Z,35
2016-06-22T05:08:49.337Z,40
2016-06-22T05:09:50.595Z,45
2016-06-22T05:10:50.612Z,45
2016-06-22T05:11:51.870Z,40
2016-06-22T05:12:50.054Z,40
2016-06-22T05:13:50.074Z,35
2016-06-22T05:14:49.504Z,30
2016-06-22T05:15:51.950Z,30
2016-06-22T05:16:51.377Z,30
2016-06-22T05:17:52.025Z,25
2016-06-22T05:18:51.467Z,25
2016-06-22T05:19:50.855Z,25
2016-06-22T05:20:50.304Z,25
2016-06-22T05:21:50.288Z,25
2016-06-22T05:22:49.711Z,25
2016-06-22T05:23:51.559Z,30
2016-06-22T05:24:50.434Z,30
2016-06-22T05:25:50.992Z,30
2016-06-22T05:26:51.041Z,30
2016-06-22T05:27:51.034Z,30
2016-06-22T05:28:51.077Z,30
2016-06-22T05:29:49.884Z,30
2016-06-22T05:30:50.505Z,30
2016-06-22T05:31:52.375Z,30
2016-06-22T05:32:50.575Z,30
2016-06-22T05:33:51.801Z,30
2016-06-22T05:34:50.634Z,30
2016-06-22T05:35:50.657Z,30
2016-06-22T05:36:52.497Z,30
2016-06-22T05:37:52.562Z,30
2016-06-22T05:38:50.724Z,30
2016-06-22T05:39:51.365Z,30
2016-06-22T05:40:50.787Z,30
2016-06-22T05:41:50.840Z,30
2016-06-22T05:42:51.440Z,30
2016-06-22T05:43:52.060Z,30
2016-06-22T05:44:52.117Z,30
2016-06-22T05:45:51.520Z,30
2016-06-22T05:46:51.538Z,30
2016-06-22T05:47:52.171Z,30
2016-06-22T05:48:51.578Z,30
2016-06-22T05:49:51.626Z,30
2016-06-22T05:50:51.036Z,30
2016-06-22T05:51:52.288Z,35
2016-06-22T05:52:51.079Z,35
2016-06-22T05:53:52.329Z,35
2016-06-22T05:54:51.765Z,35
2016-06-22T05:55:51.768Z,35
2016-06-22T05:56:51.811Z,40
2016-06-22T05:57:52.436Z,40
2016-06-22T05:58:52.453Z,40
2016-06-22T05:59:51.256Z,40
2016-06-22T06:00:51.271Z,35
2016-06-22T06:01:51.950Z,35
2016-06-22T06:02:52.570Z,35
2016-06-22T06:03:53.194Z,35
2016-06-22T06:04:52.016Z,35
2016-06-22T06:05:52.039Z,35
2016-06-22T06:06:51.436Z,35
2016-06-22T06:07:52.681Z,35
2016-06-22T06:08:52.109Z,35
2016-06-22T06:09:51.521Z,35
2016-06-22T06:10:53.392Z,35
2016-06-22T06:11:52.182Z,35
2016-06-22T06:12:52.844Z,35
2016-06-22T06:13:52.247Z,35
2016-06-22T06:14:52.273Z,35
2016-06-22T06:15:52.304Z,35
2016-06-22T06:16:52.315Z,35
2016-06-22T06:17:51.737Z,35
2016-06-22T06:18:52.369Z,35
2016-06-22T06:19:53.023Z,35
2016-06-22T06:20:51.833Z,35
2016-06-22T06:21:52.448Z,35
2016-06-22T06:22:51.880Z,40
2016-06-22T06:23:51.901Z,40
2016-06-22T06:24:53.149Z,40
2016-06-22T06:25:52.554Z,40
2016-06-22T06:26:53.807Z,40
2016-06-22T06:27:52.606Z,40
2016-06-22T06:28:52.636Z,40
2016-06-22T06:29:52.043Z,40
2016-06-22T06:30:52.075Z,45
2016-06-22T06:31:52.714Z,45
2016-06-22T06:32:52.746Z,50
2016-06-22T06:33:52.145Z,50
2016-06-22T06:34:51.562Z,45
2016-06-22T06:35:53.421Z,45
2016-06-22T06:36:52.849Z,45
2016-06-22T06:37:54.125Z,45
2016-06-22T06:38:53.527Z,45
2016-06-22T06:39:53.547Z,50
2016-06-22T06:40:52.952Z,50
2016-06-22T06:41:51.831Z,55
2016-06-22T06:42:52.991Z,55
2016-06-22T06:43:53.038Z,60
2016-06-22T06:44:53.074Z,65
2016-06-22T06:45:53.679Z,65
2016-06-22T06:46:53.096Z,65
2016-06-22T06:47:52.530Z,65
2016-06-22T06:48:53.176Z,65
2016-06-22T06:49:52.563Z,65
2016-06-22T06:50:52.610Z,65
2016-06-22T06:51:53.842Z,65
2016-06-22T06:52:53.296Z,65
2016-06-22T06:53:53.931Z,65
2016-06-22T06:54:54.535Z,65
2016-06-22T06:55:52.766Z,65
2016-06-22T06:56:53.381Z,65
2016-06-22T06:57:52.178Z,65
2016-06-22T06:58:52.207Z,65
2016-06-22T06:59:53.471Z,65
2016-06-22T07:00:53.476Z,65
2016-06-22T07:01:53.520Z,70
2016-06-22T07:02:54.154Z,70
2016-06-22T07:03:52.969Z,70
2016-06-22T07:04:52.373Z,70
2016-06-22T07:05:54.254Z,70
2016-06-22T07:06:53.647Z,70
2016-06-22T07:07:53.059Z,70
2016-06-22T07:08:53.722Z,70
2016-06-22T07:09:53.730Z,70
2016-06-22T07:10:54.377Z,65
2016-06-22T07:11:54.372Z,65
2016-06-22T07:12:53.800Z,70
2016-06-22T07:13:53.850Z,70
2016-06-22T07:14:54.488Z,75
2016-06-22T07:15:53.873Z,75
2016-06-22T07:16:55.163Z,80
2016-06-22T07:17:55.124Z,80
2016-06-22T07:18:54.569Z,85
2016-06-22T07:19:55.442Z,85
2016-06-22T07:20:54.119Z,90
2016-06-22T07:21:54.942Z,90
2016-06-22T07:22:54.702Z,90
2016-06-22T07:23:55.358Z,95
2016-06-22T07:24:53.981Z,95
2016-06-22T07:25:54.218Z,100
2016-06-22T07:26:53.584Z,105
2016-06-22T07:27:54.565Z,105
2016-06-22T07:28:54.387Z,105
2016-06-22T07:29:54.884Z,105
2016-06-22T07:30:55.024Z,105
2016-06-22T07:31:54.551Z,110
2016-06-22T07:32:55.291Z,115
2016-06-22T07:33:54.819Z,115
2016-06-22T07:34:56.814Z,110
2016-06-22T07:35:53.890Z,110
2016-06-22T07:36:54.351Z,110
2016-06-22T07:37:54.471Z,115
2016-06-22T07:38:54.622Z,115
2016-06-22T07:39:53.671Z,120
2016-06-22T07:40:54.544Z,120
2016-06-22T07:41:55.223Z,125
2016-06-22T07:42:54.728Z,130
2016-06-22T07:43:55.246Z,130
2016-06-22T07:44:54.670Z,135
2016-06-22T07:45:53.473Z,135
2016-06-22T07:46:54.108Z,135
2016-06-22T07:47:55.959Z,135
2016-06-22T07:48:54.789Z,140
2016-06-22T07:49:54.805Z,145
2016-06-22T07:50:53.615Z,145
2016-06-22T07:51:55.454Z,145
2016-06-22T07:52:54.903Z,145
2016-06-22T07:53:54.916Z,145
2016-06-22T07:54:54.948Z,145
2016-06-22T07:55:54.364Z,140
2016-06-22T07:56:54.385Z,130
2016-06-22T07:57:53.794Z,130
2016-06-22T07:58:54.443Z,130
2016-06-22T07:59:55.693Z,130
2016-06-22T08:00:54.481Z,130
2016-06-22T08:01:55.146Z,140
2016-06-22T08:02:56.377Z,140
2016-06-22T08:03:55.187Z,145
2016-06-22T08:04:54.600Z,145
2016-06-22T08:05:55.253Z,140
2016-06-22T08:06:55.895Z,145
2016-06-22T08:07:55.307Z,145
2016-06-22T08:08:55.327Z,140
2016-06-22T08:09:55.354Z,140
2016-06-22T08:10:55.394Z,140
2016-06-22T08:11:55.411Z,135
2016-06-22T08:12:55.428Z,140
2016-06-22T08:13:56.098Z,140
2016-06-22T08:14:55.489Z,140
2016-06-22T08:15:54.914Z,135
2016-06-22T08:16:55.556Z,130
2016-06-22T08:17:56.174Z,130
2016-06-22T08:18:55.595Z,130
2016-06-22T08:19:55.631Z,130
2016-06-22T08:20:56.881Z,125
2016-06-22T08:21:56.288Z,125
2016-06-22T08:22:55.083Z,125
2016-06-22T08:23:54.525Z,125
2016-06-22T08:24:56.393Z,125
2016-06-22T08:25:56.418Z,130
2016-06-22T08:26:56.444Z,130
2016-06-22T08:27:57.057Z,130
2016-06-22T08:28:56.486Z,130
2016-06-22T08:29:55.902Z,125
2016-06-22T08:30:55.316Z,125
2016-06-22T08:31:56.564Z,125
2016-06-22T08:32:55.990Z,125
2016-06-22T08:33:56.006Z,125
2016-06-22T08:34:56.659Z,125
2016-06-22T08:35:55.480Z,125
2016-06-22T08:36:55.483Z,125
2016-06-22T08:37:56.113Z,125
2016-06-22T08:38:56.750Z,125
2016-06-22T08:39:56.186Z,125
2016-06-22T08:40:55.602Z,125
2016-06-22T08:41:56.867Z,125
2016-06-22T08:42:57.519Z,120
2016-06-22T08:43:56.274Z,120
2016-06-22T08:44:56.933Z,125
2016-06-22T08:45:56.356Z,125
2016-06-22T08:46:56.344Z,125
2016-06-22T08:47:57.005Z,125
2016-06-22T08:48:57.039Z,125
2016-06-22T08:49:55.852Z,125
2016-06-22T08:50:57.082Z,125
2016-06-22T08:51:55.882Z,125
2016-06-22T08:52:57.146Z,120
2016-06-22T08:53:57.151Z,120
2016-06-22T08:54:57.182Z,120
2016-06-22T08:55:56.635Z,120
2016-06-22T08:56:56.029Z,120
2016-06-22T08:57:56.664Z,120
2016-06-22T08:58:57.292Z,120
2016-06-22T08:59:56.721Z,120
2016-06-22T09:00:58.004Z,125
2016-06-22T09:01:56.783Z,125
2016-06-22T09:02:56.817Z,125
2016-06-22T09:03:57.533Z,125
2016-06-22T09:04:56.251Z,125
2016-06-22T09:05:56.898Z,125
2016-06-22T09:06:56.284Z,125
2016-06-22T09:07:58.182Z,125
2016-06-22T09:08:56.350Z,125
2016-06-22T09:09:57.029Z,125
2016-06-22T09:10:58.268Z,125
2016-06-22T09:11:57.685Z,125
2016-06-22T09:12:57.129Z,125
2016-06-22T09:13:56.511Z,125
2016-06-22T09:14:55.914Z,125
2016-06-22T09:15:57.776Z,120
2016-06-22T09:16:56.594Z,120
2016-06-22T09:17:57.839Z,120
2016-06-22T09:18:57.259Z,115
2016-06-22T09:19:58.501Z,115
2016-06-22T09:20:58.507Z,115
2016-06-22T09:21:57.932Z,120
2016-06-22T09:22:56.798Z,120
2016-06-22T09:23:56.170Z,120
2016-06-22T09:24:58.627Z,125
2016-06-22T09:25:58.712Z,130
2016-06-22T09:26:58.100Z,130
2016-06-22T09:27:56.914Z,135
2016-06-22T09:28:56.917Z,140
2016-06-22T09:29:58.166Z,145
2016-06-22T09:30:58.222Z,150
2016-06-22T09:31:58.820Z,155
2016-06-22T09:32:58.257Z,155
2016-06-22T09:33:56.458Z,155
2016-06-22T09:34:57.683Z,155
2016-06-22T09:35:57.708Z,155
2016-06-22T09:36:57.751Z,150
2016-06-22T09:37:58.986Z,140
2016-06-22T09:38:57.788Z,135
2016-06-22T09:39:57.771Z,140
2016-06-22T09:40:57.270Z,140
2016-06-22T09:41:58.511Z,140
2016-06-22T09:42:59.130Z,145
2016-06-22T09:43:57.966Z,145
2016-06-22T09:44:58.577Z,145
2016-06-22T09:45:58.626Z,145
2016-06-22T09:46:58.041Z,140
2016-06-22T09:47:58.685Z,140
2016-06-22T09:48:58.715Z,135
2016-06-22T09:49:58.114Z,135
2016-06-22T09:50:58.188Z,140
2016-06-22T09:51:56.965Z,145
2016-06-22T09:52:58.840Z,150
2016-06-22T09:53:59.458Z,145
2016-06-22T09:54:57.643Z,140
2016-06-22T09:55:58.902Z,135
2016-06-22T09:56:58.908Z,140
2016-06-22T09:57:58.960Z,150
2016-06-22T09:58:57.130Z,155
2016-06-22T09:59:59.006Z,160
2016-06-22T10:00:57.217Z,165
2016-06-22T10:01:59.052Z,165
2016-06-22T10:02:58.487Z,165
2016-06-22T10:03:59.143Z,165
2016-06-22T10:04:58.543Z,170
2016-06-22T10:05:58.565Z,165
2016-06-22T10:06:59.785Z,170
2016-06-22T10:07:58.604Z,170
2016-06-22T10:08:58.040Z,170
2016-06-22T10:09:58.049Z,165
2016-06-22T10:10:58.082Z,160
2016-06-22T10:11:58.741Z,160
2016-06-22T10:12:58.759Z,160
2016-06-22T10:14:59.445Z,145
2016-06-22T10:15:58.222Z,145
2016-06-22T10:16:59.469Z,145
2016-06-22T10:17:58.881Z,145
2016-06-22T10:19:00.172Z,160
2016-06-22T10:20:00.292Z,155
2016-06-22T10:20:59.009Z,145
2016-06-22T10:21:58.382Z,140
2016-06-22T10:22:58.415Z,140
2016-06-22T10:23:59.042Z,130
2016-06-22T10:24:59.699Z,125
2016-06-22T10:25:59.099Z,115
2016-06-22T10:26:59.721Z,120
2016-06-22T10:27:59.757Z,120
2016-06-22T10:28:59.181Z,130
2016-06-22T10:29:58.602Z,125
2016-06-22T10:30:58.640Z,115
2016-06-22T10:32:00.485Z,115
2016-06-22T10:32:59.330Z,120
2016-06-22T10:34:00.559Z,115
2016-06-22T10:35:00.004Z,110
2016-06-22T10:36:00.103Z,105
2016-06-22T10:36:58.803Z,100
2016-06-22T10:37:59.442Z,100
2016-06-22T10:38:59.435Z,90
2016-06-22T10:40:00.113Z,85
2016-06-22T10:41:00.138Z,80
2016-06-22T10:41:59.550Z,80
2016-06-22T10:42:58.967Z,75
2016-06-22T10:43:58.364Z,75
2016-06-22T10:44:58.411Z,70
2016-06-22T10:45:59.650Z,75
2016-06-22T10:46:59.107Z,75
2016-06-22T10:47:59.095Z,80
2016-06-22T10:48:59.764Z,65
2016-06-22T10:49:59.770Z,75
2016-06-22T10:51:00.411Z,75
2016-06-22T10:51:59.852Z,70
2016-06-22T10:53:01.095Z,70
2016-06-22T10:53:59.271Z,70
2016-06-22T10:54:58.695Z,60
2016-06-22T10:56:01.171Z,65
2016-06-22T10:57:00.590Z,75
2016-06-22T10:57:59.990Z,80
2016-06-22T10:58:59.429Z,90
2016-06-22T11:00:01.281Z,80
2016-06-22T11:00:59.483Z,90
2016-06-22T11:02:00.102Z,85
2016-06-22T11:03:00.125Z,80
2016-06-22T11:03:58.935Z,75
2016-06-22T11:05:00.185Z,80
2016-06-22T11:05:59.606Z,70
2016-06-22T11:06:59.052Z,90
2016-06-22T11:08:00.895Z,90
2016-06-22T11:09:00.314Z,85
2016-06-22T11:10:00.329Z,85
2016-06-22T11:11:00.367Z,85
2016-06-22T11:12:00.985Z,90
2016-06-22T11:13:01.006Z,90
2016-06-22T11:14:01.077Z,90
2016-06-22T11:15:00.446Z,80
2016-06-22T11:16:01.147Z,65
2016-06-22T11:17:01.156Z,75
2016-06-22T11:19:01.198Z,85
2016-06-22T11:20:01.232Z,100
2016-06-22T11:21:01.842Z,80
2016-06-22T11:22:00.677Z,75
2016-06-22T11:23:00.686Z,85
2016-06-22T11:24:01.313Z,95
2016-06-22T11:25:00.747Z,100
2016-06-22T11:25:59.539Z,105
2016-06-22T11:27:01.419Z,110
2016-06-22T11:28:01.442Z,105
2016-06-22T11:29:00.841Z,100
2016-06-22T11:30:00.893Z,80
2016-06-22T11:31:00.920Z,70
2016-06-22T11:32:01.558Z,75
2016-06-22T11:33:00.958Z,80
2016-06-22T11:34:01.064Z,100
2016-06-22T11:35:01.243Z,115
2016-06-22T11:36:02.270Z,115
2016-06-22T11:37:00.467Z,120
2016-06-22T11:38:01.119Z,125
2016-06-22T11:39:01.128Z,120
2016-06-22T11:39:59.953Z,120
2016-06-22T11:41:01.191Z,125
2016-06-22T11:42:01.226Z,115
2016-06-22T11:43:02.059Z,110
2016-06-22T11:44:00.036Z,105
2016-06-22T11:45:01.314Z,105
2016-06-22T11:46:00.729Z,110
2016-06-22T11:47:01.362Z,120
2016-06-22T11:48:00.192Z,115
2016-06-22T11:49:00.787Z,120
2016-06-22T11:50:02.693Z,130
2016-06-22T11:51:02.089Z,135
2016-06-22T11:52:00.902Z,140
2016-06-22T11:53:00.911Z,135
2016-06-22T11:54:02.757Z,130
2016-06-22T11:55:02.795Z,125
2016-06-22T11:56:00.381Z,125
2016-06-22T11:57:01.667Z,130
2016-06-22T11:58:01.908Z,135
2016-06-22T11:59:01.713Z,140
2016-06-22T12:00:02.335Z,145
2016-06-22T12:01:00.532Z,140
2016-06-22T12:02:02.432Z,135
2016-06-22T12:03:02.421Z,125
2016-06-22T12:04:03.102Z,120
2016-06-22T12:05:01.851Z,120
2016-06-22T12:06:02.539Z,120
2016-06-22T12:07:01.303Z,120
2016-06-22T12:08:01.931Z,125
2016-06-22T12:09:01.369Z,130
2016-06-22T12:10:02.007Z,130
2016-06-22T12:11:02.041Z,130
2016-06-22T12:12:03.316Z,125
2016-06-22T12:13:02.104Z,130
2016-06-22T12:14:02.139Z,120
2016-06-22T12:15:02.743Z,120
2016-06-22T12:16:01.798Z,120
2016-06-22T12:17:02.194Z,120
2016-06-22T12:18:01.632Z,120
2016-06-22T12:19:01.034Z,120
2016-06-22T12:20:03.533Z,120
2016-06-22T12:21:01.710Z,125
2016-06-22T12:22:02.332Z,130
2016-06-22T12:23:02.998Z,130
2016-06-22T12:24:03.024Z,125
2016-06-22T12:25:03.615Z,125
2016-06-22T12:26:01.871Z,130
2016-06-22T12:27:03.087Z,135
2016-06-22T12:28:02.507Z,140
2016-06-22T12:29:03.135Z,140
2016-06-22T12:30:01.951Z,140
2016-06-22T12:31:02.579Z,135
2016-06-22T12:32:02.694Z,135
2016-06-22T12:33:02.646Z,130
2016-06-22T12:34:03.899Z,125
2016-06-22T12:35:02.777Z,125
2016-06-22T12:36:02.114Z,120
2016-06-22T12:37:03.379Z,125
2016-06-22T12:38:03.402Z,130
2016-06-22T12:39:02.797Z,130
2016-06-22T12:40:03.501Z,135
2016-06-22T12:41:03.464Z,140
2016-06-22T12:42:02.915Z,140
2016-06-22T12:43:03.533Z,140
2016-06-22T12:44:04.404Z,140
2016-06-22T12:45:02.991Z,140
2016-06-22T12:46:03.002Z,140
2016-06-22T12:47:02.429Z,135
2016-06-22T12:48:02.422Z,130
2016-06-22T12:49:03.086Z,130
2016-06-22T12:50:03.787Z,125
2016-06-22T12:51:03.140Z,125
2016-06-22T12:52:03.772Z,120
2016-06-22T12:53:03.210Z,120
2016-06-22T12:54:02.003Z,120
2016-06-22T12:55:03.883Z,115
2016-06-22T12:56:03.297Z,110
2016-06-22T12:57:03.912Z,115
2016-06-22T12:58:02.129Z,110
2016-06-22T12:59:02.780Z,105
2016-06-22T13:00:03.375Z,100
2016-06-22T13:01:02.810Z,105
2016-06-22T13:02:02.858Z,110
2016-06-22T13:03:04.691Z,115
2016-06-22T13:04:04.127Z,110
2016-06-22T13:05:02.319Z,110
2016-06-22T13:06:02.322Z,105
2016-06-22T13:07:02.968Z,100
2016-06-22T13:08:04.220Z,100
2016-06-22T13:09:02.398Z,95
2016-06-22T13:10:03.669Z,90
2016-06-22T13:11:04.293Z,90
2016-06-22T13:12:03.751Z,85
2016-06-22T13:13:03.767Z,85
2016-06-22T13:14:03.775Z,75
2016-06-22T13:15:04.429Z,70
2016-06-22T13:16:03.219Z,70
2016-06-22T13:17:04.179Z,65
2016-06-22T13:18:03.322Z,70
2016-06-22T13:19:03.333Z,80
2016-06-22T13:20:03.342Z,85
2016-06-22T13:21:03.389Z,95
2016-06-22T13:22:04.630Z,100
2016-06-22T13:23:03.423Z,105
2016-06-22T13:24:04.075Z,115
2016-06-22T13:25:04.715Z,120
2016-06-22T13:26:05.324Z,120
2016-06-22T13:27:05.389Z,120
2016-06-22T13:28:04.199Z,120
2016-06-22T13:29:04.228Z,125
2016-06-22T13:30:04.230Z,125
2016-06-22T13:31:03.251Z,125
2016-06-22T13:32:04.902Z,125
2016-06-22T13:33:04.313Z,125
2016-06-22T13:34:04.955Z,125
2016-06-22T13:35:03.788Z,125
2016-06-22T13:36:05.630Z,125
2016-06-22T13:37:04.438Z,125
2016-06-22T13:38:05.091Z,125
2016-06-22T13:39:05.713Z,125
2016-06-22T13:40:05.146Z,125
2016-06-22T13:41:04.557Z,120
2016-06-22T13:42:05.155Z,120
2016-06-22T13:43:05.233Z,120
2016-06-22T13:44:05.836Z,120
2016-06-22T13:45:05.263Z,120
2016-06-22T13:46:04.670Z,120
2016-06-22T13:47:04.106Z,120
2016-06-22T13:48:04.730Z,120
2016-06-22T13:49:04.786Z,120
2016-06-22T13:50:04.781Z,120
2016-06-22T13:51:03.601Z,120
2016-06-22T13:52:03.638Z,120
2016-06-22T13:53:04.322Z,115
2016-06-22T13:54:06.140Z,110
2016-06-22T13:55:06.160Z,105
2016-06-22T13:56:05.582Z,100
2016-06-22T13:57:04.991Z,95
2016-06-22T13:58:04.406Z,90
2016-06-22T13:59:05.061Z,90
2016-06-22T14:00:06.342Z,90
2016-06-22T14:01:05.734Z,80
2016-06-22T14:02:03.955Z,75
2016-06-22T14:03:03.927Z,70
2016-06-22T14:04:04.589Z,65
2016-06-22T14:05:04.629Z,65
2016-06-22T14:06:05.240Z,65
2016-06-22T14:07:04.671Z,70
2016-06-22T14:08:05.319Z,70
2016-06-22T14:09:05.339Z,75
2016-06-22T14:10:04.134Z,80
2016-06-22T14:11:05.391Z,85
2016-06-22T14:12:04.805Z,90
2016-06-22T14:13:04.846Z,95
2016-06-22T14:14:06.698Z,110
2016-06-22T14:15:06.082Z,120